Time;durP1;ratioP1;P1;durP2;ratioP2;P2;SDS_P1;SDS_P2;PMS_P1;PMS_P2;Temp;Humidity;BMP_temperature;BMP_pressure;BME280_temperature;BME280_humidity;BME280_pressure;Samples;Min_cycle;Max_cycle;Signal;HPM_P1;HPM_P2
2022/04/23 00:02:12;;;;;;;9.15;4.47;;;;;;;10.52;61.29;100191.28;1643173;86;21059;-53
2022/04/23 00:04:40;;;;;;;8.50;4.53;;;;;;;10.59;61.24;100195.06;1642115;85;21083;-53
2022/04/23 00:07:08;;;;;;;11.05;4.83;;;;;;;10.64;61.31;100201.27;1639851;85;21110;-53
2022/04/23 00:09:36;;;;;;;7.00;4.45;;;;;;;10.68;61.35;100199.20;1639860;85;21038;-53
2022/04/23 00:12:04;;;;;;;6.92;4.42;;;;;;;10.67;61.34;100197.52;1638173;85;21050;-53
2022/04/23 00:14:31;;;;;;;9.40;5.12;;;;;;;10.62;61.57;100195.27;1639660;85;21873;-53
2022/04/23 00:17:00;;;;;;;8.15;4.83;;;;;;;10.57;61.79;100190.41;1642351;85;21057;-53
2022/04/23 00:19:28;;;;;;;9.55;5.42;;;;;;;10.54;61.92;100179.28;1639286;85;21070;-53
2022/04/23 00:21:55;;;;;;;9.15;4.62;;;;;;;10.46;62.07;100175.99;1639646;86;22609;-53
2022/04/23 00:24:21;;;;;;;9.15;4.70;;;;;;;10.39;62.14;100179.61;1640752;85;21607;-52
2022/04/23 00:26:49;;;;;;;10.10;5.12;;;;;;;10.31;62.25;100174.60;1638882;86;21095;-53
2022/04/23 00:29:17;;;;;;;8.83;4.20;;;;;;;10.28;62.21;100163.84;1638337;85;21106;-53
2022/04/23 00:31:45;;;;;;;6.87;3.90;;;;;;;10.28;62.14;100176.16;1638726;86;21062;-53
2022/04/23 00:34:13;;;;;;;8.38;4.30;;;;;;;10.30;61.97;100177.69;1639729;85;21130;-53
2022/04/23 00:36:42;;;;;;;9.25;4.70;;;;;;;10.34;61.91;100167.78;1638028;86;21794;-53
2022/04/23 00:39:08;;;;;;;7.17;4.85;;;;;;;10.37;61.95;100163.59;1640283;85;21151;-53
2022/04/23 00:41:51;;;;;;;9.10;4.40;;;;;;;10.40;61.95;100159.39;1637060;87;21042;-53
2022/04/23 00:44:18;;;;;;;9.18;4.58;;;;;;;10.39;61.72;100153.80;1639199;85;21046;-53
2022/04/23 00:46:46;;;;;;;8.73;3.98;;;;;;;10.34;61.73;100148.91;1635401;86;21074;-53
2022/04/23 00:49:14;;;;;;;10.13;5.08;;;;;;;10.28;61.71;100149.86;1633043;85;21074;-53
2022/04/23 00:51:40;;;;;;;7.60;3.85;;;;;;;10.20;61.75;100147.40;1626501;87;21197;-53
2022/04/23 00:54:09;;;;;;;8.15;4.10;;;;;;;10.14;61.63;100153.14;1624043;87;21086;-53
2022/04/23 00:56:39;;;;;;;6.72;3.77;;;;;;;10.08;61.59;100146.23;1631637;87;21078;-53
2022/04/23 00:59:08;;;;;;;8.10;4.40;;;;;;;10.02;61.67;100148.91;1626475;87;21069;-54
2022/04/23 01:01:35;;;;;;;10.08;4.30;;;;;;;9.97;61.70;100151.05;1618655;87;21130;-53
2022/04/23 01:04:05;;;;;;;10.82;5.65;;;;;;;9.94;61.84;100153.95;1623027;87;21131;-53
2022/04/23 01:06:34;;;;;;;9.35;4.33;;;;;;;9.89;62.38;100151.68;1617736;87;21097;-53
2022/04/23 01:09:04;;;;;;;6.05;3.55;;;;;;;9.89;62.96;100143.80;1622264;87;21159;-53
2022/04/23 01:11:35;;;;;;;7.67;3.50;;;;;;;9.93;63.36;100141.75;1627354;87;21050;-53
2022/04/23 01:14:01;;;;;;;9.85;4.28;;;;;;;9.93;63.74;100136.00;1625161;87;21578;-53
2022/04/23 01:16:28;;;;;;;9.68;4.83;;;;;;;9.93;64.17;100137.80;1627177;87;22286;-53
2022/04/23 01:18:55;;;;;;;8.80;4.25;;;;;;;9.89;64.62;100131.97;1622485;87;21580;-53
2022/04/23 01:21:21;;;;;;;6.70;3.90;;;;;;;9.84;64.67;100131.02;1624836;87;21132;-53
2022/04/23 01:23:53;;;;;;;8.00;4.42;;;;;;;9.78;64.90;100118.86;1625455;86;21561;-53
2022/04/23 01:26:28;;;;;;;8.23;4.55;;;;;;;9.71;64.86;100115.89;1620025;87;21132;-53
2022/04/23 01:28:57;;;;;;;9.35;4.55;;;;;;;9.65;64.91;100125.59;1627849;87;21031;-53
2022/04/23 01:31:24;;;;;;;7.60;4.15;;;;;;;9.58;65.17;100129.20;1624578;87;21387;-53
2022/04/23 01:33:51;;;;;;;7.53;4.20;;;;;;;9.54;65.39;100129.06;1625497;87;21093;-53
2022/04/23 01:36:17;;;;;;;8.53;3.20;;;;;;;9.54;65.53;100130.87;1621667;87;21041;-53
2022/04/23 01:38:45;;;;;;;6.15;3.33;;;;;;;9.56;65.49;100121.89;1630172;87;21158;-53
2022/04/23 01:41:12;;;;;;;9.50;4.42;;;;;;;9.59;65.60;100119.03;1623785;87;21343;-53
2022/04/23 01:43:39;;;;;;;8.10;3.87;;;;;;;9.61;65.55;100127.61;1620006;86;21119;-53
2022/04/23 01:46:07;;;;;;;7.60;4.35;;;;;;;9.61;65.49;100125.47;1621373;87;21120;-53
2022/04/23 01:48:34;;;;;;;9.25;3.95;;;;;;;9.58;65.55;100134.91;1601584;88;21583;-53
2022/04/23 01:51:00;;;;;;;7.22;3.85;;;;;;;9.58;65.57;100125.71;1618719;86;21061;-53
2022/04/23 01:53:27;;;;;;;7.67;3.45;;;;;;;9.58;65.35;100130.51;1649699;85;21168;-53
2022/04/23 01:55:54;;;;;;;7.15;4.42;;;;;;;9.55;65.22;100124.19;1631065;86;21102;-53
2022/04/23 01:58:22;;;;;;;9.00;4.22;;;;;;;9.51;65.35;100123.23;1629575;87;21083;-53
2022/04/23 02:00:50;;;;;;;6.92;3.45;;;;;;;9.46;65.87;100107.83;1646906;86;21087;-53
2022/04/23 02:03:17;;;;;;;7.30;3.50;;;;;;;9.43;66.20;100112.86;1651027;85;21094;-53
2022/04/23 02:05:45;;;;;;;6.67;3.85;;;;;;;9.43;66.57;100110.23;1644140;85;21039;-53
2022/04/23 02:08:17;;;;;;;8.18;4.72;;;;;;;9.41;66.88;100101.63;1648729;86;22172;-52
2022/04/23 02:10:44;;;;;;;7.83;4.80;;;;;;;9.39;67.20;100098.29;1649766;85;21129;-53
2022/04/23 02:13:12;;;;;;;6.00;3.47;;;;;;;9.34;67.57;100095.20;1649471;85;21566;-52
2022/04/23 02:15:40;;;;;;;7.20;3.60;;;;;;;9.32;67.83;100110.73;1647454;86;21537;-52
2022/04/23 02:18:08;;;;;;;6.78;3.47;;;;;;;9.26;67.98;100112.89;1649545;86;21076;-53
2022/04/23 02:20:37;;;;;;;8.08;3.92;;;;;;;9.21;68.20;100111.56;1649214;85;21088;-52
2022/04/23 02:23:04;;;;;;;6.28;3.02;;;;;;;9.14;68.41;100107.76;1649232;86;21060;-52
2022/04/23 02:25:35;;;;;;;7.47;3.25;;;;;;;9.10;68.58;100110.62;1646453;85;21710;-52
2022/04/23 02:28:04;;;;;;;5.92;3.17;;;;;;;9.14;68.70;100113.01;1646318;86;21058;-52
2022/04/23 02:30:32;;;;;;;5.95;3.30;;;;;;;9.16;68.64;100113.72;1623911;86;21399;-53
2022/04/23 02:33:00;;;;;;;6.50;3.60;;;;;;;9.19;68.68;100117.42;1613582;88;21105;-53
2022/04/23 02:35:27;;;;;;;5.95;3.25;;;;;;;9.19;68.78;100114.80;1619031;86;21102;-53
2022/04/23 02:38:01;;;;;;;6.62;3.20;;;;;;;9.17;68.73;100114.91;1631567;86;21134;-53
2022/04/23 02:40:24;;;;;;;6.30;3.72;;;;;;;9.13;68.60;100106.94;1647722;85;21108;-53
2022/04/23 02:42:51;;;;;;;7.22;4.08;;;;;;;9.06;68.57;100114.45;1632508;86;21156;-53
2022/04/23 02:45:20;;;;;;;8.00;3.55;;;;;;;9.01;68.61;100118.37;1629483;86;21079;-53
2022/04/23 02:47:48;;;;;;;6.25;2.70;;;;;;;9.00;68.67;100105.73;1631036;86;21060;-52
2022/04/23 02:50:30;;;;;;;4.10;1.87;;;;;;;9.01;68.48;100094.30;1633220;86;21065;-53
2022/04/23 02:52:57;;;;;;;6.25;3.02;;;;;;;9.01;68.45;100092.98;1626032;86;22224;-54
2022/04/23 02:55:29;;;;;;;5.53;3.30;;;;;;;9.02;68.54;100099.05;1623026;86;21172;-53
2022/04/23 02:58:07;;;;;;;12.75;3.67;;;;;;;9.01;68.48;100108.73;1625662;86;22038;-53
2022/04/23 03:00:38;;;;;;;4.95;2.62;;;;;;;9.04;68.53;100111.09;1598386;87;21102;-53
2022/04/23 03:03:09;;;;;;;7.12;3.50;;;;;;;9.01;68.27;100108.73;1655052;85;21121;-53
2022/04/23 03:05:41;;;;;;;6.22;3.08;;;;;;;8.97;68.42;100112.53;1648415;85;21134;-53
2022/04/23 03:08:07;;;;;;;7.35;3.62;;;;;;;8.95;68.59;100115.75;1652952;86;21572;-54
2022/04/23 03:10:35;;;;;;;5.80;2.72;;;;;;;8.94;68.65;100112.76;1649633;85;21058;-53
2022/04/23 03:13:03;;;;;;;5.58;2.62;;;;;;;8.97;68.62;100105.97;1652224;86;21059;-53
2022/04/23 03:15:31;;;;;;;6.05;3.08;;;;;;;8.98;68.65;100105.02;1649399;86;21059;-53
2022/04/23 03:18:09;;;;;;;6.58;3.62;;;;;;;9.00;68.67;100112.30;1651441;86;21189;-53
2022/04/23 03:20:38;;;;;;;6.25;3.55;;;;;;;8.98;68.75;100111.59;1650088;85;21091;-54
2022/04/23 03:23:05;;;;;;;5.60;2.90;;;;;;;8.97;69.04;100107.77;1649416;86;21331;-54
2022/04/23 03:25:32;;;;;;;7.65;3.45;;;;;;;8.96;69.10;100100.38;1650810;85;21148;-54
2022/04/23 03:28:00;;;;;;;7.12;3.72;;;;;;;8.93;69.08;100110.63;1653973;86;21059;-54
2022/04/23 03:33:07;;;;;;;5.12;2.85;;;;;;;8.93;69.22;100109.31;1793179;78;22653;-54
2022/04/23 03:35:34;;;;;;;6.30;2.87;;;;;;;8.94;69.04;100118.01;1757303;80;21780;-54
2022/04/23 03:38:03;;;;;;;10.20;3.20;;;;;;;8.97;69.14;100111.70;1763402;80;21144;-54
2022/04/23 03:40:30;;;;;;;9.10;3.55;;;;;;;9.01;69.26;100115.29;1760742;79;21833;-53
2022/04/23 03:42:57;;;;;;;7.65;4.15;;;;;;;9.03;69.36;100116.00;1762048;80;22299;-53
2022/04/23 03:45:25;;;;;;;11.57;3.72;;;;;;;9.04;69.41;100111.09;1766073;79;20979;-53
2022/04/23 03:47:52;;;;;;;7.50;3.65;;;;;;;9.05;69.54;100107.52;1719160;81;22248;-53
2022/04/23 03:50:20;;;;;;;7.25;3.90;;;;;;;9.04;69.54;100103.21;1710991;83;21294;-54
2022/04/23 03:52:48;;;;;;;8.25;3.75;;;;;;;9.00;69.53;100111.47;1710737;82;21067;-54
2022/04/23 03:55:14;;;;;;;6.30;3.20;;;;;;;9.00;69.58;100111.47;1710624;82;21644;-54
2022/04/23 03:57:48;;;;;;;7.00;2.90;;;;;;;9.05;69.51;100113.25;1706325;82;21074;-53
2022/04/23 04:00:20;;;;;;;7.10;3.92;;;;;;;9.08;69.53;100114.33;1699275;83;21011;-54
2022/04/23 04:02:46;;;;;;;9.80;3.92;;;;;;;9.11;69.64;100110.12;1700438;83;22102;-53
2022/04/23 04:05:13;;;;;;;7.25;3.90;;;;;;;9.10;69.66;100101.92;1702352;83;21524;-53
2022/04/23 04:07:45;;;;;;;7.08;3.65;;;;;;;9.06;69.69;100093.45;1694882;82;21074;-52
2022/04/23 04:10:13;;;;;;;7.05;4.00;;;;;;;9.02;69.74;100101.19;1704487;82;21042;-53
2022/04/23 04:12:42;;;;;;;7.20;4.25;;;;;;;9.03;69.88;100102.05;1708888;82;21079;-52
2022/04/23 04:15:11;;;;;;;7.17;4.20;;;;;;;9.02;69.83;100103.81;1696728;83;21973;-53
2022/04/23 04:17:40;;;;;;;9.90;3.35;;;;;;;9.01;69.79;100103.48;1687095;83;21121;-52
2022/04/23 04:20:14;;;;;;;6.58;3.02;;;;;;;9.04;69.73;100096.66;1690771;82;21118;-53
2022/04/23 04:22:41;;;;;;;6.47;3.30;;;;;;;9.09;69.62;100101.55;1710814;82;21070;-53
2022/04/23 04:25:10;;;;;;;6.35;3.55;;;;;;;9.17;69.58;100093.08;1713195;83;21035;-53
2022/04/23 04:27:38;;;;;;;6.47;3.62;;;;;;;9.17;69.57;100092.59;1710133;82;21169;-53
2022/04/23 04:30:08;;;;;;;6.33;3.80;;;;;;;9.19;69.51;100098.55;1702650;83;21590;-53
2022/04/23 04:32:36;;;;;;;7.15;4.17;;;;;;;9.17;69.45;100099.65;1701605;82;21647;-53
2022/04/23 04:35:05;;;;;;;7.75;3.98;;;;;;;9.14;69.43;100090.21;1702581;82;21063;-53
2022/04/23 04:37:33;;;;;;;8.50;3.90;;;;;;;9.11;69.52;100089.13;1684372;83;21126;-53
2022/04/23 04:40:01;;;;;;;7.62;3.72;;;;;;;9.09;69.49;100095.84;1760678;80;21102;-53
2022/04/23 04:42:30;;;;;;;5.85;3.02;;;;;;;9.11;69.48;100089.98;1753294;79;21110;-53
2022/04/23 04:44:57;;;;;;;7.62;3.72;;;;;;;9.16;69.51;100090.09;1755013;81;21047;-53
2022/04/23 04:47:25;;;;;;;7.35;4.28;;;;;;;9.20;69.60;100074.47;1755022;81;21044;-53
2022/04/23 04:49:54;;;;;;;6.85;3.67;;;;;;;9.21;69.67;100084.00;1754043;81;20992;-53
2022/04/23 04:52:20;;;;;;;8.25;4.35;;;;;;;9.22;69.62;100079.11;1761945;79;21236;-54
2022/04/23 04:54:48;;;;;;;7.05;3.70;;;;;;;9.21;69.55;100085.31;1756295;81;21055;-53
2022/04/23 04:57:17;;;;;;;7.05;3.65;;;;;;;9.17;69.69;100074.22;1749750;79;21086;-53
2022/04/23 04:59:45;;;;;;;8.10;4.03;;;;;;;9.17;69.84;100087.34;1760021;80;21082;-53
2022/04/23 05:02:12;;;;;;;5.83;3.05;;;;;;;9.18;69.74;100080.30;1755968;79;21561;-53
2022/04/23 05:04:40;;;;;;;6.65;3.33;;;;;;;9.22;69.63;100082.56;1756254;81;21027;-53
2022/04/23 05:07:08;;;;;;;7.67;4.00;;;;;;;9.29;69.58;100073.72;1757198;79;21058;-53
2022/04/23 05:09:35;;;;;;;8.10;4.08;;;;;;;9.36;69.46;100072.27;1760556;81;21051;-53
2022/04/23 05:12:04;;;;;;;7.78;4.08;;;;;;;9.38;69.48;100077.41;1751700;79;21043;-52
2022/04/23 05:14:32;;;;;;;7.72;4.08;;;;;;;9.41;69.51;100067.97;1758886;79;21110;-52
2022/04/23 05:16:58;;;;;;;8.00;4.67;;;;;;;9.43;69.41;100075.23;1757104;79;21139;-51
2022/04/23 05:19:26;;;;;;;7.22;4.33;;;;;;;9.44;69.48;100074.30;1757613;79;21058;-52
2022/04/23 05:21:54;;;;;;;7.17;4.17;;;;;;;9.45;69.38;100067.61;1756420;81;21042;-52
2022/04/23 05:24:24;;;;;;;7.42;3.60;;;;;;;9.51;69.28;100072.02;1753626;79;21462;-52
2022/04/23 05:26:51;;;;;;;7.40;3.40;;;;;;;9.57;69.02;100075.47;1759404;79;21055;-52
2022/04/23 05:29:19;;;;;;;8.43;3.85;;;;;;;9.65;68.96;100074.37;1755387;79;22811;-53
2022/04/23 05:31:48;;;;;;;8.53;4.53;;;;;;;9.72;68.93;100070.28;1755326;80;21051;-53
2022/04/23 05:34:14;;;;;;;9.40;4.67;;;;;;;9.76;68.84;100062.98;1741648;81;21075;-53
2022/04/23 05:36:41;;;;;;;7.33;4.67;;;;;;;9.77;68.90;100060.23;1746564;80;21052;-53
2022/04/23 05:39:08;;;;;;;8.10;4.53;;;;;;;9.81;68.92;100061.63;1740123;80;21009;-53
2022/04/23 05:41:37;;;;;;;8.00;4.67;;;;;;;9.83;68.90;100058.88;1730490;81;21194;-53
2022/04/23 05:44:04;;;;;;;8.48;4.15;;;;;;;9.84;68.86;100051.36;1739979;80;21905;-53
2022/04/23 05:46:30;;;;;;;5.62;3.52;;;;;;;9.90;68.75;100052.64;1739790;81;21059;-53
2022/04/23 05:48:57;;;;;;;7.12;4.25;;;;;;;9.98;68.49;100052.34;1721912;81;21083;-53
2022/04/23 05:51:25;;;;;;;8.40;4.12;;;;;;;10.05;68.01;100048.73;1753177;80;21083;-53
2022/04/23 05:53:52;;;;;;;7.67;4.37;;;;;;;10.11;67.77;100043.47;1739676;80;21783;-53
2022/04/23 05:56:20;;;;;;;7.87;4.03;;;;;;;10.15;67.73;100047.49;1735598;81;21087;-53
2022/04/23 05:58:49;;;;;;;8.33;4.95;;;;;;;10.19;67.66;100041.86;1750569;81;21019;-52
2022/04/23 06:01:16;;;;;;;10.72;5.08;;;;;;;10.23;67.64;100041.11;1741923;81;21015;-53
2022/04/23 06:03:44;;;;;;;7.28;4.30;;;;;;;10.29;67.57;100045.01;1742688;80;21071;-53
2022/04/23 06:06:12;;;;;;;7.85;4.37;;;;;;;10.32;67.25;100037.75;1750799;80;21506;-53
2022/04/23 06:08:42;;;;;;;9.08;4.78;;;;;;;10.35;67.15;100035.33;1749075;80;21028;-53
2022/04/23 06:11:08;;;;;;;9.13;4.47;;;;;;;10.43;67.14;100035.52;1750874;80;21055;-53
2022/04/23 06:13:36;;;;;;;8.70;4.12;;;;;;;10.58;66.92;100036.83;1741237;81;21165;-53
2022/04/23 06:16:04;;;;;;;9.83;4.22;;;;;;;10.69;66.76;100029.35;1738302;80;21063;-53
2022/04/23 06:18:31;;;;;;;7.17;4.62;;;;;;;10.80;66.50;100027.59;1738162;81;21176;-52
2022/04/23 06:20:58;;;;;;;9.55;4.53;;;;;;;10.89;66.34;100037.30;1734810;80;21075;-52
2022/04/23 06:23:27;;;;;;;8.45;4.53;;;;;;;10.93;65.85;100029.02;1745970;80;21090;-52
2022/04/23 06:25:55;;;;;;;8.10;4.47;;;;;;;10.94;65.48;100032.00;1749984;80;21553;-52
2022/04/23 06:28:22;;;;;;;7.10;4.03;;;;;;;10.95;65.06;100023.13;1754654;81;21674;-51
2022/04/23 06:30:49;;;;;;;8.23;4.92;;;;;;;10.96;64.79;100023.95;1754287;80;22097;-52
2022/04/23 06:33:18;;;;;;;8.13;4.78;;;;;;;10.94;64.64;100028.05;1758026;80;21035;-51
2022/04/23 06:35:45;;;;;;;7.65;4.40;;;;;;;10.95;64.58;100033.66;1754103;80;21099;-54
2022/04/23 06:38:12;;;;;;;6.72;4.25;;;;;;;11.01;64.54;100026.19;1755373;81;21047;-52
2022/04/23 06:40:40;;;;;;;7.65;3.90;;;;;;;11.10;64.55;100028.02;1751941;80;21765;-54
2022/04/23 06:43:07;;;;;;;6.83;3.83;;;;;;;11.28;64.63;100024.23;1754993;80;21087;-54
2022/04/23 06:45:35;;;;;;;8.23;5.12;;;;;;;11.42;63.97;100028.30;1695183;82;21585;-53
2022/04/23 06:48:06;;;;;;;7.53;4.62;;;;;;;11.55;63.56;100026.22;1745039;80;21356;-53
2022/04/23 06:50:35;;;;;;;7.92;4.33;;;;;;;11.66;63.36;100020.80;1748391;80;21363;-53
2022/04/23 06:53:03;;;;;;;9.88;5.30;;;;;;;11.77;62.64;100024.26;1747221;80;21199;-52
2022/04/23 06:55:31;;;;;;;7.35;4.28;;;;;;;11.82;62.14;100024.20;1753443;80;21043;-53
2022/04/23 06:57:57;;;;;;;7.95;5.20;;;;;;;11.88;61.98;100018.38;1750465;80;21110;-53
2022/04/23 07:00:26;;;;;;;8.48;4.50;;;;;;;11.96;61.85;100007.15;1758519;80;21014;-53
2022/04/23 07:02:54;;;;;;;7.47;4.53;;;;;;;12.05;61.59;100012.06;1746398;80;21540;-53
2022/04/23 07:05:21;;;;;;;9.20;4.45;;;;;;;12.12;61.03;100001.31;1723256;81;21743;-53
2022/04/23 07:08:01;;;;;;;7.85;4.53;;;;;;;12.15;60.54;100001.00;1749102;80;21054;-52
2022/04/23 07:10:30;;;;;;;11.10;4.83;;;;;;;12.19;59.73;99998.94;1747440;80;21048;-52
2022/04/23 07:12:57;;;;;;;7.45;4.40;;;;;;;12.24;60.08;99996.70;1752620;81;20996;-52
2022/04/23 07:15:25;;;;;;;7.35;4.35;;;;;;;12.29;60.11;99995.78;1754047;80;21086;-52
2022/04/23 07:17:53;;;;;;;6.70;4.17;;;;;;;12.39;59.14;99995.26;1750778;80;21585;-53
2022/04/23 07:20:19;;;;;;;7.40;4.55;;;;;;;12.49;58.79;99997.02;1750943;80;21513;-53
2022/04/23 07:25:35;;;;;;;7.97;4.58;;;;;;;12.71;59.01;99992.70;1754237;80;21015;-52
2022/04/23 07:28:04;;;;;;;8.73;4.20;;;;;;;12.83;58.21;99984.92;1756808;80;21107;-52
2022/04/23 07:30:33;;;;;;;7.50;4.70;;;;;;;12.93;57.83;99986.69;1740968;80;21094;-52
2022/04/23 07:33:00;;;;;;;6.80;4.08;;;;;;;13.02;57.45;99984.47;1758018;80;21303;-53
2022/04/23 07:38:16;;;;;;;6.87;4.10;;;;;;;13.17;56.28;99971.58;1754650;80;21035;-52
2022/04/23 07:40:44;;;;;;;7.75;4.03;;;;;;;13.16;55.58;99975.19;1749254;80;21035;-53
2022/04/23 07:43:13;;;;;;;8.08;4.03;;;;;;;13.13;55.73;99971.05;1746782;80;21082;-52
2022/04/23 07:45:41;;;;;;;7.05;4.40;;;;;;;13.15;56.07;99962.48;1747005;80;21177;-52
2022/04/23 07:48:09;;;;;;;8.88;4.58;;;;;;;13.18;56.04;99963.51;1748550;80;21055;-52
2022/04/23 07:50:39;;;;;;;8.30;5.05;;;;;;;13.21;55.70;99958.40;1746642;81;21044;-52
2022/04/23 07:53:07;;;;;;;9.15;4.60;;;;;;;13.26;55.43;99955.31;1752631;81;21103;-52
2022/04/23 07:55:38;;;;;;;8.40;4.42;;;;;;;13.28;55.62;99946.73;1754409;81;21055;-52
2022/04/23 07:58:05;;;;;;;8.28;4.65;;;;;;;13.29;55.16;99947.09;1750174;80;21144;-53
2022/04/23 08:00:34;;;;;;;7.35;4.60;;;;;;;13.29;55.31;99943.13;1752178;80;21560;-53
2022/04/23 08:03:03;;;;;;;7.78;4.20;;;;;;;13.28;55.03;99942.31;1745138;80;21634;-53
2022/04/23 08:05:30;;;;;;;6.70;4.15;;;;;;;13.30;55.17;99941.66;1748762;80;21691;-53
2022/04/23 08:07:58;;;;;;;7.78;3.58;;;;;;;13.33;55.05;99943.19;1752003;81;21047;-53
2022/04/23 08:10:26;;;;;;;8.40;4.45;;;;;;;13.40;55.22;99944.73;1752477;81;21035;-53
2022/04/23 08:12:57;;;;;;;6.67;4.55;;;;;;;13.48;54.69;99942.16;1751227;81;21051;-53
2022/04/23 08:15:26;;;;;;;7.33;4.20;;;;;;;13.50;54.48;99941.04;1743949;80;21032;-53
2022/04/23 08:17:53;;;;;;;7.03;4.28;;;;;;;13.55;54.70;99936.12;1743476;80;21545;-53
2022/04/23 08:20:20;;;;;;;7.47;4.08;;;;;;;13.61;54.37;99924.09;1749987;80;21516;-53
2022/04/23 08:22:48;;;;;;;6.80;4.22;;;;;;;13.68;54.34;99935.70;1755001;80;20997;-54
2022/04/23 08:25:15;;;;;;;6.78;4.12;;;;;;;13.71;53.78;99922.69;1684715;82;20987;-52
2022/04/23 08:27:51;;;;;;;7.95;4.40;;;;;;;13.77;53.63;99923.40;1740282;80;21083;-53
2022/04/23 08:30:35;;;;;;;7.70;3.90;;;;;;;13.83;53.50;99920.61;1749531;80;20987;-52
2022/04/23 08:33:04;;;;;;;7.55;3.92;;;;;;;13.85;53.42;99905.41;1745861;81;21095;-52
2022/04/23 08:35:34;;;;;;;7.17;3.90;;;;;;;13.91;52.90;99911.41;1746264;80;21022;-52
2022/04/23 08:38:00;;;;;;;7.20;4.25;;;;;;;13.96;53.09;99911.77;1750535;80;21059;-53
2022/04/23 08:40:29;;;;;;;7.00;3.87;;;;;;;14.03;53.10;99903.54;1748429;81;21954;-52
2022/04/23 08:42:57;;;;;;;6.35;3.92;;;;;;;14.13;53.02;99904.75;1750973;81;21038;-53
2022/04/23 08:45:24;;;;;;;8.25;3.75;;;;;;;14.24;52.46;99907.13;1752462;81;21020;-53
2022/04/23 08:47:52;;;;;;;7.22;3.67;;;;;;;14.34;51.89;99904.38;1734914;81;21082;-52
2022/04/23 08:50:21;;;;;;;8.05;4.72;;;;;;;14.44;51.83;99902.89;1728690;80;21612;-53
2022/04/23 08:52:59;;;;;;;5.50;3.62;;;;;;;14.51;52.07;99897.32;1706427;83;21075;-53
2022/04/23 08:55:22;;;;;;;7.20;4.20;;;;;;;14.61;51.67;99896.72;1755034;81;21048;-52
2022/04/23 08:57:48;;;;;;;7.70;4.40;;;;;;;14.67;51.70;99897.38;1741325;81;21079;-52
2022/04/23 09:00:16;;;;;;;6.42;3.85;;;;;;;14.72;51.78;99891.61;1743990;80;22335;-53
2022/04/23 09:02:44;;;;;;;6.37;3.87;;;;;;;14.77;51.44;99887.97;1741415;80;21541;-52
2022/04/23 09:05:12;;;;;;;6.50;3.92;;;;;;;14.83;51.41;99887.84;1753877;81;22239;-52
2022/04/23 09:07:52;;;;;;;6.87;3.80;;;;;;;14.86;51.22;99886.16;1676220;83;21051;-52
2022/04/23 09:10:19;;;;;;;7.72;4.60;;;;;;;14.87;51.17;99883.86;1729717;80;21044;-52
2022/04/23 09:12:56;;;;;;;9.53;3.65;;;;;;;14.87;51.33;99877.23;1749500;81;21095;-52
2022/04/23 09:24:12;;;;;;;6.15;3.92;;;;;;;15.09;50.49;99860.38;1752496;80;21062;-53
2022/04/23 09:26:41;;;;;;;7.75;4.03;;;;;;;15.16;51.16;99861.37;1750635;81;21875;-52
2022/04/23 09:29:16;;;;;;;8.25;4.45;;;;;;;15.26;51.63;99858.55;1755525;80;21682;-52
2022/04/23 09:31:42;;;;;;;7.33;4.05;;;;;;;15.32;50.59;99844.14;1697621;82;21073;-53
2022/04/23 09:34:17;;;;;;;6.70;4.12;;;;;;;15.45;50.45;99842.80;1750385;81;21081;-52
2022/04/23 09:36:56;;;;;;;6.50;3.40;;;;;;;15.58;50.81;99832.02;1721283;81;21109;-52
2022/04/23 09:39:36;;;;;;;6.37;3.45;;;;;;;15.73;49.77;99829.98;1728781;81;21217;-52
2022/04/23 09:42:19;;;;;;;5.75;2.80;;;;;;;15.90;48.68;99825.48;1732460;81;21526;-52
2022/04/23 09:44:47;;;;;;;4.97;2.60;;;;;;;16.08;48.31;99824.75;1740691;81;21290;-52
2022/04/23 09:47:31;;;;;;;5.60;2.70;;;;;;;16.28;47.05;99817.70;1660284;85;21113;-52
2022/04/23 09:49:59;;;;;;;9.68;2.20;;;;;;;16.44;46.98;99822.09;1716209;81;21967;-52
2022/04/23 09:52:30;;;;;;;5.05;2.72;;;;;;;16.67;46.64;99804.34;1729987;81;22299;-52
2022/04/23 09:54:58;;;;;;;5.62;2.35;;;;;;;16.86;45.26;99815.05;1731453;81;22219;-51
2022/04/23 09:57:25;;;;;;;5.92;2.35;;;;;;;17.03;45.02;99809.11;1719881;81;21038;-54
2022/04/23 09:59:52;;;;;;;5.80;2.95;;;;;;;17.15;44.06;99802.86;1704621;81;21078;-52
2022/04/23 10:02:20;;;;;;;4.20;2.15;;;;;;;17.25;43.34;99793.30;1725065;81;21113;-53
2022/04/23 10:04:46;;;;;;;6.12;2.45;;;;;;;17.29;42.56;99792.43;1667437;85;21140;-53
2022/04/23 10:07:17;;;;;;;5.58;2.33;;;;;;;17.34;42.03;99790.05;1725485;81;22255;-53
2022/04/23 10:09:46;;;;;;;4.00;2.00;;;;;;;17.40;42.59;99790.64;1660714;85;21038;-52
2022/04/23 10:12:18;;;;;;;5.17;2.10;;;;;;;17.49;42.28;99784.24;1724081;81;21110;-52
2022/04/23 10:14:51;;;;;;;4.67;2.10;;;;;;;17.59;41.15;99786.13;1667418;85;21709;-51
2022/04/23 10:17:20;;;;;;;5.00;2.33;;;;;;;17.68;41.01;99780.72;1724878;81;21030;-52
2022/04/23 10:19:48;;;;;;;5.25;2.33;;;;;;;17.75;40.40;99773.16;1735175;81;21318;-52
2022/04/23 10:22:37;;;;;;;5.37;2.35;;;;;;;17.81;38.41;99765.74;1726887;81;21045;-52
2022/04/23 10:25:32;;;;;;;4.95;2.08;;;;;;;17.83;38.55;99766.89;1733498;81;21058;-52
2022/04/23 10:28:00;;;;;;;4.50;1.92;;;;;;;17.89;38.21;99771.52;1661057;84;21126;-51
2022/04/23 10:30:31;;;;;;;5.50;2.08;;;;;;;17.97;37.65;99771.90;1725534;80;21626;-52
2022/04/23 10:32:57;;;;;;;4.67;2.05;;;;;;;18.00;37.83;99757.73;1729669;81;21081;-52
2022/04/23 10:35:31;;;;;;;4.72;2.30;;;;;;;18.01;38.43;99768.69;1730993;81;21047;-52
2022/04/23 10:38:00;;;;;;;7.10;2.67;;;;;;;18.05;38.51;99756.34;1754117;80;21041;-52
2022/04/23 10:40:27;;;;;;;5.45;2.40;;;;;;;18.11;38.13;99764.92;1666591;80;21082;-53
2022/04/23 10:43:15;;;;;;;4.55;2.33;;;;;;;18.16;38.19;99755.86;1705557;80;21150;-52
2022/04/23 10:45:41;;;;;;;6.20;2.33;;;;;;;18.20;38.10;99753.12;1751299;81;21082;-53
2022/04/23 10:48:27;;;;;;;5.05;2.55;;;;;;;18.27;38.10;99745.21;1755471;81;21067;-53
2022/04/23 10:51:05;;;;;;;5.28;2.35;;;;;;;18.30;37.80;99746.17;1754300;81;21593;-52
2022/04/23 10:53:43;;;;;;;4.12;1.90;;;;;;;18.28;38.08;99739.70;1759261;81;21050;-53
2022/04/23 10:56:11;;;;;;;4.75;2.05;;;;;;;18.34;38.47;99732.78;1757052;80;21250;-53
2022/04/23 10:58:44;;;;;;;5.75;2.42;;;;;;;18.48;38.42;99739.91;1751172;80;21040;-53
2022/04/23 11:01:29;;;;;;;4.83;2.47;;;;;;;18.64;38.99;99737.99;1751644;80;21065;-52
2022/04/23 11:04:00;;;;;;;5.17;2.27;;;;;;;18.83;37.35;99724.55;1751146;81;21047;-52
2022/04/23 11:12:23;;;;;;;4.95;1.85;;;;;;;19.00;35.56;99719.27;1748430;80;21518;-52
2022/04/23 11:14:56;;;;;;;4.65;2.20;;;;;;;18.96;35.73;99716.65;1751591;80;21063;-52
2022/04/23 11:17:26;;;;;;;4.70;2.25;;;;;;;18.94;37.02;99718.69;1751166;80;21057;-53
2022/04/23 11:19:54;;;;;;;5.15;2.60;;;;;;;18.91;37.19;99713.74;1752860;81;21008;-52
2022/04/23 11:22:21;;;;;;;6.87;2.33;;;;;;;18.92;37.68;99715.41;1747156;80;21205;-52
2022/04/23 11:24:52;;;;;;;4.95;2.12;;;;;;;18.94;37.64;99705.36;1753524;81;21047;-53
2022/04/23 11:27:28;;;;;;;4.12;2.10;;;;;;;18.91;37.49;99708.41;1755515;81;21098;-53
2022/04/23 11:29:54;;;;;;;4.90;2.60;;;;;;;18.94;37.79;99708.84;1754758;81;21567;-53
2022/04/23 11:32:28;;;;;;;4.42;2.10;;;;;;;19.04;37.74;99708.51;1753346;80;21027;-53
2022/04/23 11:34:57;;;;;;;5.45;1.85;;;;;;;19.12;36.66;99699.55;1755501;80;21432;-52
2022/04/23 11:37:37;;;;;;;5.40;2.20;;;;;;;19.14;36.39;99696.17;1747971;80;21029;-52
2022/04/23 11:40:11;;;;;;;6.45;2.00;;;;;;;19.14;35.72;99690.84;1756028;80;22743;-53
2022/04/23 11:42:48;;;;;;;5.67;2.37;;;;;;;19.17;35.74;99684.30;1755808;81;22528;-53
2022/04/23 11:45:17;;;;;;;4.72;2.05;;;;;;;19.23;35.82;99676.83;1752387;80;21070;-53
2022/04/23 11:47:44;;;;;;;4.97;2.00;;;;;;;19.28;35.83;99678.39;1755226;80;22048;-53
2022/04/23 11:50:16;;;;;;;4.60;2.12;;;;;;;19.34;35.98;99665.61;1755861;80;21487;-53
2022/04/23 11:52:48;;;;;;;5.95;2.08;;;;;;;19.43;36.13;99664.44;1757357;81;21127;-53
2022/04/23 11:55:21;;;;;;;5.28;2.20;;;;;;;19.55;36.35;99650.52;1755406;80;21051;-53
2022/04/23 11:57:57;;;;;;;4.80;2.30;;;;;;;19.63;35.29;99645.00;1748278;79;21568;-54
2022/04/23 12:00:25;;;;;;;4.50;2.17;;;;;;;19.71;35.37;99646.69;1755408;81;25818;-53
2022/04/23 12:02:53;;;;;;;4.05;1.82;;;;;;;19.73;35.19;99634.77;1755055;79;21029;-52
2022/04/23 12:05:31;;;;;;;4.40;2.17;;;;;;;19.75;34.90;99632.75;1752887;81;21041;-54